sensor_id;sensor_type;location;lat;lon;timestamp;pressure;altitude;pressure_sealevel;temperature;humidity
43681;BME280;29281;50.356;30.894;2023-02-16T00:00:03;101282.27;;;2.24;65.62
43681;BME280;29281;50.356;30.894;2023-02-16T00:01:20;101278.91;;;2.14;65.31
43681;BME280;29281;50.356;30.894;2023-02-16T00:02:23;101283.42;;;2.06;65.61
43681;BME280;29281;50.356;30.894;2023-02-16T00:03:29;101278.09;;;2.12;65.71
43681;BME280;29281;50.356;30.894;2023-02-16T00:04:34;101268.50;;;2.11;65.55
43681;BME280;29281;50.356;30.894;2023-02-16T00:05:39;101271.97;;;2.13;65.84
43681;BME280;29281;50.356;30.894;2023-02-16T00:06:42;101274.52;;;2.16;65.47
43681;BME280;29281;50.356;30.894;2023-02-16T00:07:47;101272.72;;;2.20;65.47
43681;BME280;29281;50.356;30.894;2023-02-16T00:08:52;101275.50;;;2.10;65.42
43681;BME280;29281;50.356;30.894;2023-02-16T00:09:55;101283.34;;;2.12;65.65
43681;BME280;29281;50.356;30.894;2023-02-16T00:10:58;101276.28;;;2.14;65.56
43681;BME280;29281;50.356;30.894;2023-02-16T00:12:20;101270.98;;;2.19;65.46
43681;BME280;29281;50.356;30.894;2023-02-16T00:13:43;101274.45;;;2.21;65.57
43681;BME280;29281;50.356;30.894;2023-02-16T00:14:50;101273.74;;;2.11;65.97
43681;BME280;29281;50.356;30.894;2023-02-16T00:15:53;101267.52;;;2.17;65.94
43681;BME280;29281;50.356;30.894;2023-02-16T00:16:57;101266.67;;;2.15;65.82
43681;BME280;29281;50.356;30.894;2023-02-16T00:18:01;101271.97;;;2.13;65.90
43681;BME280;29281;50.356;30.894;2023-02-16T00:19:26;101277.16;;;2.15;65.96
43681;BME280;29281;50.356;30.894;2023-02-16T00:20:17;101278.89;;;2.16;66.29
43681;BME280;29281;50.356;30.894;2023-02-16T00:21:20;101279.73;;;2.18;66.54
43681;BME280;29281;50.356;30.894;2023-02-16T00:22:24;101279.70;;;2.19;66.34
43681;BME280;29281;50.356;30.894;2023-02-16T00:23:28;101282.31;;;2.21;66.12
43681;BME280;29281;50.356;30.894;2023-02-16T00:24:32;101280.58;;;2.20;66.17
43681;BME280;29281;50.356;30.894;2023-02-16T00:25:35;101278.82;;;2.20;66.07
43681;BME280;29281;50.356;30.894;2023-02-16T00:26:42;101274.48;;;2.18;65.96
43681;BME280;29281;50.356;30.894;2023-02-16T00:27:45;101279.70;;;2.19;66.26
43681;BME280;29281;50.356;30.894;2023-02-16T00:28:50;101270.16;;;2.15;66.77
43681;BME280;29281;50.356;30.894;2023-02-16T00:29:54;101273.64;;;2.16;66.29
43681;BME280;29281;50.356;30.894;2023-02-16T00:30:58;101278.84;;;2.19;66.35
43681;BME280;29281;50.356;30.894;2023-02-16T00:32:03;101278.91;;;2.14;66.68
43681;BME280;29281;50.356;30.894;2023-02-16T00:33:14;101278.86;;;2.17;66.44
43681;BME280;29281;50.356;30.894;2023-02-16T00:34:29;101275.36;;;2.18;66.15
43681;BME280;29281;50.356;30.894;2023-02-16T00:35:31;101272.76;;;2.17;66.27
43681;BME280;29281;50.356;30.894;2023-02-16T00:36:35;101273.66;;;2.14;66.65
43681;BME280;29281;50.356;30.894;2023-02-16T00:37:38;101275.40;;;2.15;66.73
43681;BME280;29281;50.356;30.894;2023-02-16T00:38:41;101277.98;;;2.18;66.57
43681;BME280;29281;50.356;30.894;2023-02-16T00:39:44;101277.16;;;2.15;66.82
43681;BME280;29281;50.356;30.894;2023-02-16T00:40:48;101278.02;;;2.15;66.76
43681;BME280;29281;50.356;30.894;2023-02-16T00:41:52;101274.48;;;2.18;66.54
43681;BME280;29281;50.356;30.894;2023-02-16T00:42:55;101272.76;;;2.17;66.50
43681;BME280;29281;50.356;30.894;2023-02-16T00:43:59;101278.82;;;2.20;66.81
43681;BME280;29281;50.356;30.894;2023-02-16T00:45:05;101277.95;;;2.20;66.87
43681;BME280;29281;50.356;30.894;2023-02-16T00:46:12;101275.29;;;2.23;67.16
43681;BME280;29281;50.356;30.894;2023-02-16T00:47:23;101272.69;;;2.21;68.19
43681;BME280;29281;50.356;30.894;2023-02-16T00:48:26;101274.47;;;2.19;67.49
43681;BME280;29281;50.356;30.894;2023-02-16T00:49:30;101271.84;;;2.19;67.36
43681;BME280;29281;50.356;30.894;2023-02-16T00:50:33;101274.52;;;2.16;67.57
43681;BME280;29281;50.356;30.894;2023-02-16T00:51:37;101277.16;;;2.15;67.74
43681;BME280;29281;50.356;30.894;2023-02-16T00:52:41;101268.48;;;2.13;67.76
43681;BME280;29281;50.356;30.894;2023-02-16T00:53:45;101267.61;;;2.12;67.83
43681;BME280;29281;50.356;30.894;2023-02-16T00:54:50;101270.22;;;2.14;67.67
43681;BME280;29281;50.356;30.894;2023-02-16T00:55:52;101270.23;;;2.12;68.12
43681;BME280;29281;50.356;30.894;2023-02-16T00:57:00;101267.66;;;2.09;67.64
43681;BME280;29281;50.356;30.894;2023-02-16T00:59:11;101273.72;;;2.13;67.48
43681;BME280;29281;50.356;30.894;2023-02-16T01:00:39;101269.34;;;2.13;67.74
43681;BME280;29281;50.356;30.894;2023-02-16T01:01:21;101270.34;;;2.04;67.82
43681;BME280;29281;50.356;30.894;2023-02-16T01:02:25;101270.30;;;2.07;68.15
43681;BME280;29281;50.356;30.894;2023-02-16T01:03:30;101265.04;;;2.09;68.02
43681;BME280;29281;50.356;30.894;2023-02-16T01:04:33;101261.57;;;2.07;68.10
43681;BME280;29281;50.356;30.894;2023-02-16T01:05:37;101253.69;;;2.08;68.36
43681;BME280;29281;50.356;30.894;2023-02-16T01:06:40;101252.89;;;2.03;67.68
43681;BME280;29281;50.356;30.894;2023-02-16T01:08:05;101258.93;;;2.08;67.74
43681;BME280;29281;50.356;30.894;2023-02-16T01:09:26;101259.86;;;2.04;67.59
43681;BME280;29281;50.356;30.894;2023-02-16T01:10:47;101255.42;;;2.09;67.90
43681;BME280;29281;50.356;30.894;2023-02-16T01:12:10;101261.51;;;2.11;67.69
43681;BME280;29281;50.356;30.894;2023-02-16T01:13:14;101258.05;;;2.09;67.64
43681;BME280;29281;50.356;30.894;2023-02-16T01:14:17;101263.28;;;2.09;67.97
43681;BME280;29281;50.356;30.894;2023-02-16T01:15:21;101258.00;;;2.13;67.54
43681;BME280;29281;50.356;30.894;2023-02-16T01:16:32;101262.35;;;2.14;67.41
43681;BME280;29281;50.356;30.894;2023-02-16T01:17:33;101262.30;;;2.15;67.76
43681;BME280;29281;50.356;30.894;2023-02-16T01:18:37;101257.92;;;2.16;68.49
43681;BME280;29281;50.356;30.894;2023-02-16T01:19:42;101251.81;;;2.15;69.19
43681;BME280;29281;50.356;30.894;2023-02-16T01:20:45;101256.19;;;2.15;68.22
43681;BME280;29281;50.356;30.894;2023-02-16T01:21:50;101248.38;;;2.13;68.17
43681;BME280;29281;50.356;30.894;2023-02-16T01:22:54;101243.21;;;2.08;69.17
43681;BME280;29281;50.356;30.894;2023-02-16T01:23:57;101240.56;;;2.10;70.39
43681;BME280;29281;50.356;30.894;2023-02-16T01:25:01;101244.97;;;2.08;71.25
43681;BME280;29281;50.356;30.894;2023-02-16T01:26:05;101254.64;;;2.03;69.41
43681;BME280;29281;50.356;30.894;2023-02-16T01:27:11;101248.66;;;1.96;69.28
43681;BME280;29281;50.356;30.894;2023-02-16T01:28:19;101245.96;;;1.99;69.06
43681;BME280;29281;50.356;30.894;2023-02-16T01:29:23;101244.14;;;2.04;68.65
43681;BME280;29281;50.356;30.894;2023-02-16T01:30:26;101251.17;;;2.01;68.96
43681;BME280;29281;50.356;30.894;2023-02-16T01:31:30;101251.16;;;2.02;68.96
43681;BME280;29281;50.356;30.894;2023-02-16T01:32:36;101243.25;;;2.05;69.05
43681;BME280;29281;50.356;30.894;2023-02-16T01:33:41;101245.94;;;2.01;69.38
43681;BME280;29281;50.356;30.894;2023-02-16T01:34:44;101244.19;;;2.01;69.68
43681;BME280;29281;50.356;30.894;2023-02-16T01:35:48;101241.66;;;1.97;69.08
43681;BME280;29281;50.356;30.894;2023-02-16T01:36:52;101243.44;;;1.95;69.72
43681;BME280;29281;50.356;30.894;2023-02-16T01:37:55;101241.73;;;1.92;69.53
43681;BME280;29281;50.356;30.894;2023-02-16T01:38:59;101241.69;;;1.95;69.57
43681;BME280;29281;50.356;30.894;2023-02-16T01:40:05;101237.33;;;1.94;69.35
43681;BME280;29281;50.356;30.894;2023-02-16T01:42:52;101239.09;;;1.94;70.07
43681;BME280;29281;50.356;30.894;2023-02-16T01:45:25;101248.58;;;1.99;69.40
43681;BME280;29281;50.356;30.894;2023-02-16T01:46:35;101244.12;;;2.06;69.14
43681;BME280;29281;50.356;30.894;2023-02-16T01:48:45;101241.56;;;2.01;69.81
43681;BME280;29281;50.356;30.894;2023-02-16T01:49:48;101243.39;;;1.98;70.22
43681;BME280;29281;50.356;30.894;2023-02-16T01:50:57;101247.79;;;1.96;70.21
43681;BME280;29281;50.356;30.894;2023-02-16T01:53:11;101246.91;;;1.97;70.30
43681;BME280;29281;50.356;30.894;2023-02-16T01:54:21;101246.95;;;1.94;70.02
43681;BME280;29281;50.356;30.894;2023-02-16T01:55:26;101246.08;;;1.93;70.12
43681;BME280;29281;50.356;30.894;2023-02-16T01:56:40;101247.89;;;1.88;69.96
43681;BME280;29281;50.356;30.894;2023-02-16T01:57:46;101248.78;;;1.87;70.10
43681;BME280;29281;50.356;30.894;2023-02-16T01:58:53;101249.61;;;1.91;69.60
43681;BME280;29281;50.356;30.894;2023-02-16T02:03:22;101250.47;;;1.91;69.93
43681;BME280;29281;50.356;30.894;2023-02-16T02:04:56;101243.44;;;1.95;69.92
43681;BME280;29281;50.356;30.894;2023-02-16T02:06:16;101250.43;;;1.94;69.79
43681;BME280;29281;50.356;30.894;2023-02-16T02:07:24;101239.83;;;2.00;69.69
43681;BME280;29281;50.356;30.894;2023-02-16T02:08:31;101250.29;;;2.02;69.96
43681;BME280;29281;50.356;30.894;2023-02-16T02:09:35;101246.87;;;1.98;69.66
43681;BME280;29281;50.356;30.894;2023-02-16T02:10:50;101233.83;;;1.95;70.04
43681;BME280;29281;50.356;30.894;2023-02-16T02:12:05;101239.95;;;1.94;70.35
43681;BME280;29281;50.356;30.894;2023-02-16T02:14:26;101237.39;;;1.90;69.98
43681;BME280;29281;50.356;30.894;2023-02-16T02:15:33;101241.75;;;1.91;70.13
43681;BME280;29281;50.356;30.894;2023-02-16T02:16:37;101233.93;;;1.88;70.47
43681;BME280;29281;50.356;30.894;2023-02-16T02:17:41;101235.66;;;1.89;70.68
43681;BME280;29281;50.356;30.894;2023-02-16T02:18:43;101244.64;;;1.72;71.06
43681;BME280;29281;50.356;30.894;2023-02-16T02:19:53;101247.16;;;1.80;70.59
43681;BME280;29281;50.356;30.894;2023-02-16T02:21:08;101249.74;;;1.83;70.11
43681;BME280;29281;50.356;30.894;2023-02-16T02:24:26;101248.78;;;1.87;70.07
43681;BME280;29281;50.356;30.894;2023-02-16T02:26:58;101249.66;;;1.86;70.20
43681;BME280;29281;50.356;30.894;2023-02-16T02:29:09;101252.36;;;1.83;70.06
43681;BME280;29281;50.356;30.894;2023-02-16T02:32:59;101250.77;;;1.71;70.74
43681;BME280;29281;50.356;30.894;2023-02-16T02:37:46;101252.42;;;1.79;70.46
43681;BME280;29281;50.356;30.894;2023-02-16T02:42:37;101247.88;;;1.90;70.15
43681;BME280;29281;50.356;30.894;2023-02-16T02:43:45;101248.76;;;1.89;70.28
43681;BME280;29281;50.356;30.894;2023-02-16T02:44:53;101247.89;;;1.88;70.28
43681;BME280;29281;50.356;30.894;2023-02-16T02:45:59;101245.30;;;1.87;70.32
43681;BME280;29281;50.356;30.894;2023-02-16T02:47:04;101240.94;;;1.86;69.98
43681;BME280;29281;50.356;30.894;2023-02-16T02:48:07;101247.03;;;1.88;70.06
43681;BME280;29281;50.356;30.894;2023-02-16T02:49:11;101240.92;;;1.87;70.70
43681;BME280;29281;50.356;30.894;2023-02-16T02:51:42;101241.81;;;1.86;71.91
43681;BME280;29281;50.356;30.894;2023-02-16T02:52:46;101235.72;;;1.84;71.37
43681;BME280;29281;50.356;30.894;2023-02-16T02:54:06;101246.25;;;1.83;71.78
43681;BME280;29281;50.356;30.894;2023-02-16T02:55:31;101241.12;;;1.75;72.09
43681;BME280;29281;50.356;30.894;2023-02-16T02:57:04;101239.33;;;1.79;72.36
43681;BME280;29281;50.356;30.894;2023-02-16T02:58:22;101248.05;;;1.79;72.15
43681;BME280;29281;50.356;30.894;2023-02-16T02:59:53;101242.83;;;1.78;73.08
43681;BME280;29281;50.356;30.894;2023-02-16T03:01:11;101247.19;;;1.79;72.22
43681;BME280;29281;50.356;30.894;2023-02-16T03:02:16;101244.64;;;1.72;73.52
43681;BME280;29281;50.356;30.894;2023-02-16T03:03:26;101239.41;;;1.72;73.25
43681;BME280;29281;50.356;30.894;2023-02-16T03:04:33;101237.62;;;1.76;73.28
43681;BME280;29281;50.356;30.894;2023-02-16T03:05:37;101238.50;;;1.75;73.04
43681;BME280;29281;50.356;30.894;2023-02-16T03:06:43;101233.28;;;1.73;73.16
43681;BME280;29281;50.356;30.894;2023-02-16T03:07:47;101233.32;;;1.70;73.83
43681;BME280;29281;50.356;30.894;2023-02-16T03:08:53;101235.88;;;1.75;72.42
43681;BME280;29281;50.356;30.894;2023-02-16T03:09:56;101234.15;;;1.74;72.14
43681;BME280;29281;50.356;30.894;2023-02-16T03:11:03;101237.62;;;1.76;73.02
43681;BME280;29281;50.356;30.894;2023-02-16T03:12:26;101237.64;;;1.74;72.07
43681;BME280;29281;50.356;30.894;2023-02-16T03:13:53;101223.67;;;1.74;72.81
43681;BME280;29281;50.356;30.894;2023-02-16T03:14:58;101233.41;;;1.66;72.43
43681;BME280;29281;50.356;30.894;2023-02-16T03:16:04;101234.27;;;1.68;73.07
43681;BME280;29281;50.356;30.894;2023-02-16T03:17:10;101237.67;;;1.71;72.81
43681;BME280;29281;50.356;30.894;2023-02-16T03:18:33;101233.28;;;1.73;73.36
43681;BME280;29281;50.356;30.894;2023-02-16T03:19:55;101237.77;;;1.67;72.00
43681;BME280;29281;50.356;30.894;2023-02-16T03:21:19;101231.59;;;1.69;72.05
43681;BME280;29281;50.356;30.894;2023-02-16T03:22:43;101235.09;;;1.68;73.74
43681;BME280;29281;50.356;30.894;2023-02-16T03:24:05;101229.86;;;1.68;73.61
43681;BME280;29281;50.356;30.894;2023-02-16T03:25:29;101231.66;;;1.66;75.20
43681;BME280;29281;50.356;30.894;2023-02-16T03:26:51;101226.48;;;1.62;75.71
43681;BME280;29281;50.356;30.894;2023-02-16T03:28:13;101224.80;;;1.58;75.65
43681;BME280;29281;50.356;30.894;2023-02-16T03:29:35;101217.77;;;1.61;76.78
43681;BME280;29281;50.356;30.894;2023-02-16T03:30:40;101225.66;;;1.58;76.55
43681;BME280;29281;50.356;30.894;2023-02-16T03:31:47;101216.95;;;1.56;77.37
43681;BME280;29281;50.356;30.894;2023-02-16T03:32:50;101216.07;;;1.57;78.80
43681;BME280;29281;50.356;30.894;2023-02-16T03:33:54;101216.11;;;1.54;79.23
43681;BME280;29281;50.356;30.894;2023-02-16T03:35:00;101218.70;;;1.56;79.00
43681;BME280;29281;50.356;30.894;2023-02-16T03:36:05;101222.16;;;1.59;78.67
43681;BME280;29281;50.356;30.894;2023-02-16T03:37:09;101212.63;;;1.54;79.12
43681;BME280;29281;50.356;30.894;2023-02-16T03:38:14;101215.31;;;1.51;79.62
43681;BME280;29281;50.356;30.894;2023-02-16T03:39:19;101223.19;;;1.49;79.76
43681;BME280;29281;50.356;30.894;2023-02-16T03:40:24;101212.70;;;1.51;79.78
43681;BME280;29281;50.356;30.894;2023-02-16T03:41:34;101210.10;;;1.49;79.46
43681;BME280;29281;50.356;30.894;2023-02-16T03:42:37;101211.89;;;1.46;79.99
43681;BME280;29281;50.356;30.894;2023-02-16T03:43:40;101210.16;;;1.45;77.60
43681;BME280;29281;50.356;30.894;2023-02-16T03:44:43;101205.79;;;1.45;77.77
43681;BME280;29281;50.356;30.894;2023-02-16T03:45:46;101210.14;;;1.46;76.76
43681;BME280;29281;50.356;30.894;2023-02-16T03:46:49;101209.73;;;1.72;75.93
43681;BME280;29281;50.356;30.894;2023-02-16T03:47:53;101210.81;;;1.59;76.72
43681;BME280;29281;50.356;30.894;2023-02-16T03:48:58;101208.23;;;1.56;75.69
43681;BME280;29281;50.356;30.894;2023-02-16T03:50:04;101212.59;;;1.57;75.50
43681;BME280;29281;50.356;30.894;2023-02-16T03:51:08;101209.09;;;1.58;75.99
43681;BME280;29281;50.356;30.894;2023-02-16T03:52:11;101212.56;;;1.58;75.30
43681;BME280;29281;50.356;30.894;2023-02-16T03:53:14;101215.19;;;1.58;76.04
43681;BME280;29281;50.356;30.894;2023-02-16T03:54:18;101213.44;;;1.59;76.52
43681;BME280;29281;50.356;30.894;2023-02-16T03:55:22;101206.48;;;1.56;76.81
43681;BME280;29281;50.356;30.894;2023-02-16T03:56:26;101212.68;;;1.52;77.13
43681;BME280;29281;50.356;30.894;2023-02-16T03:57:29;101216.16;;;1.53;75.95
43681;BME280;29281;50.356;30.894;2023-02-16T03:58:32;101212.68;;;1.52;76.38
43681;BME280;29281;50.356;30.894;2023-02-16T03:59:36;101203.98;;;1.50;77.32
43681;BME280;29281;50.356;30.894;2023-02-16T04:00:41;101202.29;;;1.46;77.27
43681;BME280;29281;50.356;30.894;2023-02-16T04:01:45;101208.39;;;1.47;77.28
43681;BME280;29281;50.356;30.894;2023-02-16T04:02:49;101202.30;;;1.45;77.97
43681;BME280;29281;50.356;30.894;2023-02-16T04:03:52;101207.59;;;1.40;78.03
43681;BME280;29281;50.356;30.894;2023-02-16T04:04:55;101209.34;;;1.39;78.12
43681;BME280;29281;50.356;30.894;2023-02-16T04:06:01;101202.34;;;1.41;77.74
43681;BME280;29281;50.356;30.894;2023-02-16T04:07:04;101202.33;;;1.43;78.13
43681;BME280;29281;50.356;30.894;2023-02-16T04:08:08;101206.66;;;1.46;78.05
43681;BME280;29281;50.356;30.894;2023-02-16T04:09:13;101206.58;;;1.52;77.99
43681;BME280;29281;50.356;30.894;2023-02-16T04:10:17;101203.11;;;1.50;77.66
43681;BME280;29281;50.356;30.894;2023-02-16T04:11:20;101211.83;;;1.50;76.41
43681;BME280;29281;50.356;30.894;2023-02-16T04:12:42;101211.83;;;1.50;75.15
43681;BME280;29281;50.356;30.894;2023-02-16T04:13:46;101210.10;;;1.49;77.05
43681;BME280;29281;50.356;30.894;2023-02-16T04:14:48;101205.73;;;1.50;76.80
43681;BME280;29281;50.356;30.894;2023-02-16T04:15:54;101205.75;;;1.48;77.85
43681;BME280;29281;50.356;30.894;2023-02-16T04:16:57;101209.25;;;1.47;77.84
43681;BME280;29281;50.356;30.894;2023-02-16T04:18:00;101201.38;;;1.49;77.00
43681;BME280;29281;50.356;30.894;2023-02-16T04:19:04;101192.66;;;1.48;76.84
43681;BME280;29281;50.356;30.894;2023-02-16T04:20:10;101200.48;;;1.51;76.09
43681;BME280;29281;50.356;30.894;2023-02-16T04:21:13;101191.81;;;1.46;77.62
43681;BME280;29281;50.356;30.894;2023-02-16T04:22:20;101191.86;;;1.43;76.94
43681;BME280;29281;50.356;30.894;2023-02-16T04:23:23;101193.56;;;1.46;76.81
43681;BME280;29281;50.356;30.894;2023-02-16T04:24:25;101190.76;;;1.58;76.76
43681;BME280;29281;50.356;30.894;2023-02-16T04:25:30;101189.13;;;1.52;77.42
43681;BME280;29281;50.356;30.894;2023-02-16T04:26:33;101183.97;;;1.46;78.31
43681;BME280;29281;50.356;30.894;2023-02-16T04:27:36;101188.31;;;1.47;78.29
43681;BME280;29281;50.356;30.894;2023-02-16T04:28:43;101190.91;;;1.49;77.14
43681;BME280;29281;50.356;30.894;2023-02-16T04:29:44;101183.92;;;1.49;76.96
43681;BME280;29281;50.356;30.894;2023-02-16T04:30:50;101183.06;;;1.49;77.24
43681;BME280;29281;50.356;30.894;2023-02-16T04:31:55;101178.70;;;1.48;77.79
43681;BME280;29281;50.356;30.894;2023-02-16T04:32:58;101181.31;;;1.49;77.12
43681;BME280;29281;50.356;30.894;2023-02-16T04:34:01;101183.88;;;1.52;76.74
43681;BME280;29281;50.356;30.894;2023-02-16T04:35:06;101187.39;;;1.51;77.02
43681;BME280;29281;50.356;30.894;2023-02-16T04:36:10;101180.40;;;1.52;76.68
43681;BME280;29281;50.356;30.894;2023-02-16T04:37:13;101183.88;;;1.52;76.93
43681;BME280;29281;50.356;30.894;2023-02-16T04:38:16;101178.67;;;1.51;78.13
43681;BME280;29281;50.356;30.894;2023-02-16T04:39:20;101183.03;;;1.50;77.56
43681;BME280;29281;50.356;30.894;2023-02-16T04:40:24;101183.02;;;1.52;77.00
43681;BME280;29281;50.356;30.894;2023-02-16T04:41:26;101176.84;;;1.54;77.49
43681;BME280;29281;50.356;30.894;2023-02-16T04:42:29;101176.03;;;1.52;78.23
43681;BME280;29281;50.356;30.894;2023-02-16T04:43:32;101177.73;;;1.53;77.79
43681;BME280;29281;50.356;30.894;2023-02-16T04:44:41;101182.06;;;1.56;77.39
43681;BME280;29281;50.356;30.894;2023-02-16T04:45:40;101177.67;;;1.58;77.33
43681;BME280;29281;50.356;30.894;2023-02-16T04:46:44;101181.22;;;1.54;77.52
43681;BME280;29281;50.356;30.894;2023-02-16T04:47:48;101185.56;;;1.55;76.10
43681;BME280;29281;50.356;30.894;2023-02-16T04:48:51;101172.56;;;1.50;77.79
43681;BME280;29281;50.356;30.894;2023-02-16T04:49:55;101164.77;;;1.46;77.89
43681;BME280;29281;50.356;30.894;2023-02-16T04:50:58;101181.22;;;1.54;76.57
43681;BME280;29281;50.356;30.894;2023-02-16T04:52:04;101174.20;;;1.56;76.66
43681;BME280;29281;50.356;30.894;2023-02-16T04:53:08;101182.03;;;1.57;76.42
43681;BME280;29281;50.356;30.894;2023-02-16T04:54:13;101178.53;;;1.58;75.75
43681;BME280;29281;50.356;30.894;2023-02-16T04:55:17;101176.78;;;1.59;75.95
43681;BME280;29281;50.356;30.894;2023-02-16T04:56:21;101177.65;;;1.59;76.24
43681;BME280;29281;50.356;30.894;2023-02-16T04:57:26;101171.52;;;1.60;76.15
43681;BME280;29281;50.356;30.894;2023-02-16T04:58:34;101174.20;;;1.56;77.35
43681;BME280;29281;50.356;30.894;2023-02-16T04:59:38;101178.49;;;1.61;76.53
43681;BME280;29281;50.356;30.894;2023-02-16T05:00:41;101175.89;;;1.60;76.37
43681;BME280;29281;50.356;30.894;2023-02-16T05:01:45;101175.09;;;1.55;78.28
43681;BME280;29281;50.356;30.894;2023-02-16T05:02:49;101174.70;;;1.81;77.50
43681;BME280;29281;50.356;30.894;2023-02-16T05:03:52;101166.38;;;2.06;77.17
43681;BME280;29281;50.356;30.894;2023-02-16T05:04:56;101173.58;;;1.95;76.86
43681;BME280;29281;50.356;30.894;2023-02-16T05:05:58;101169.55;;;1.74;78.58
43681;BME280;29281;50.356;30.894;2023-02-16T05:07:02;101166.97;;;1.71;77.86
43681;BME280;29281;50.356;30.894;2023-02-16T05:08:05;101162.72;;;1.66;78.28
43681;BME280;29281;50.356;30.894;2023-02-16T05:09:07;101167.13;;;1.62;78.40
43681;BME280;29281;50.356;30.894;2023-02-16T05:10:11;101161.98;;;1.56;79.13
43681;BME280;29281;50.356;30.894;2023-02-16T05:11:14;101171.68;;;1.51;79.32
43681;BME280;29281;50.356;30.894;2023-02-16T05:12:35;101168.99;;;1.54;79.34
43681;BME280;29281;50.356;30.894;2023-02-16T05:13:57;101169.80;;;1.59;77.95
43681;BME280;29281;50.356;30.894;2023-02-16T05:15:19;101168.04;;;1.60;77.19
43681;BME280;29281;50.356;30.894;2023-02-16T05:16:23;101177.36;;;1.78;75.96
43681;BME280;29281;50.356;30.894;2023-02-16T05:17:27;101168.98;;;2.08;74.69
43681;BME280;29281;50.356;30.894;2023-02-16T05:18:29;101165.24;;;2.21;74.36
43681;BME280;29281;50.356;30.894;2023-02-16T05:19:37;101158.57;;;2.03;74.96
43681;BME280;29281;50.356;30.894;2023-02-16T05:20:42;101169.31;;;1.88;75.13
43681;BME280;29281;50.356;30.894;2023-02-16T05:22:04;101166.02;;;1.77;76.30
43681;BME280;29281;50.356;30.894;2023-02-16T05:23:07;101168.68;;;1.74;76.09
43681;BME280;29281;50.356;30.894;2023-02-16T05:24:11;101168.80;;;1.68;77.57
43681;BME280;29281;50.356;30.894;2023-02-16T05:25:15;101166.23;;;1.65;79.05
43681;BME280;29281;50.356;30.894;2023-02-16T05:26:17;101161.01;;;1.63;78.93
43681;BME280;29281;50.356;30.894;2023-02-16T05:27:24;101171.52;;;1.60;78.73
43681;BME280;29281;50.356;30.894;2023-02-16T05:28:28;101161.01;;;1.63;78.60
43681;BME280;29281;50.356;30.894;2023-02-16T05:29:32;101157.62;;;1.55;79.77
43681;BME280;29281;50.356;30.894;2023-02-16T05:30:36;101155.02;;;1.55;80.05
43681;BME280;29281;50.356;30.894;2023-02-16T05:31:46;101160.14;;;1.63;80.78
43681;BME280;29281;50.356;30.894;2023-02-16T05:32:49;101158.41;;;1.62;80.35
43681;BME280;29281;50.356;30.894;2023-02-16T05:33:53;101161.92;;;1.61;80.39
43681;BME280;29281;50.356;30.894;2023-02-16T05:34:57;101162.74;;;1.64;79.27
43681;BME280;29281;50.356;30.894;2023-02-16T05:36:01;101169.63;;;1.68;79.38
43681;BME280;29281;50.356;30.894;2023-02-16T05:37:03;101165.31;;;1.67;78.94
43681;BME280;29281;50.356;30.894;2023-02-16T05:38:07;101162.64;;;1.69;79.69
43681;BME280;29281;50.356;30.894;2023-02-16T05:39:09;101165.24;;;1.70;79.69
43681;BME280;29281;50.356;30.894;2023-02-16T05:40:13;101178.31;;;1.72;78.62
43681;BME280;29281;50.356;30.894;2023-02-16T05:41:16;101173.12;;;1.69;78.50
43681;BME280;29281;50.356;30.894;2023-02-16T05:42:29;101175.72;;;1.70;78.76
43681;BME280;29281;50.356;30.894;2023-02-16T05:43:33;101172.14;;;1.76;79.64
43681;BME280;29281;50.356;30.894;2023-02-16T05:44:37;101172.14;;;1.76;79.96
43681;BME280;29281;50.356;30.894;2023-02-16T05:45:39;101178.23;;;1.78;80.86
43681;BME280;29281;50.356;30.894;2023-02-16T05:46:44;101177.36;;;1.78;80.64
43681;BME280;29281;50.356;30.894;2023-02-16T05:47:48;101171.23;;;1.79;81.10
43681;BME280;29281;50.356;30.894;2023-02-16T05:48:51;101178.19;;;1.81;80.67
43681;BME280;29281;50.356;30.894;2023-02-16T05:49:55;101172.92;;;1.83;81.97
43681;BME280;29281;50.356;30.894;2023-02-16T05:50:58;101178.19;;;1.81;81.45
43681;BME280;29281;50.356;30.894;2023-02-16T05:52:01;101176.47;;;1.79;81.82
43681;BME280;29281;50.356;30.894;2023-02-16T05:53:05;101176.45;;;1.80;82.19
43681;BME280;29281;50.356;30.894;2023-02-16T05:54:09;101164.25;;;1.79;82.50
43681;BME280;29281;50.356;30.894;2023-02-16T05:55:18;101172.86;;;1.84;83.23
43681;BME280;29281;50.356;30.894;2023-02-16T05:56:22;101171.11;;;1.85;82.97
43681;BME280;29281;50.356;30.894;2023-02-16T05:57:25;101171.94;;;1.88;81.98
43681;BME280;29281;50.356;30.894;2023-02-16T05:58:28;101174.48;;;1.93;81.84
43681;BME280;29281;50.356;30.894;2023-02-16T05:59:31;101177.04;;;1.97;81.26
43681;BME280;29281;50.356;30.894;2023-02-16T06:00:39;101172.61;;;1.99;81.67
43681;BME280;29281;50.356;30.894;2023-02-16T06:01:40;101163.94;;;1.97;82.88
43681;BME280;29281;50.356;30.894;2023-02-16T06:02:42;101161.39;;;1.93;82.91
43681;BME280;29281;50.356;30.894;2023-02-16T06:03:46;101164.72;;;2.01;81.84
43681;BME280;29281;50.356;30.894;2023-02-16T06:04:50;101164.72;;;2.01;82.97
43681;BME280;29281;50.356;30.894;2023-02-16T06:05:56;101152.52;;;2.00;82.57
43681;BME280;29281;50.356;30.894;2023-02-16T06:07:01;101153.31;;;2.05;82.31
43681;BME280;29281;50.356;30.894;2023-02-16T06:08:08;101148.09;;;2.03;81.44
43681;BME280;29281;50.356;30.894;2023-02-16T06:09:11;101152.39;;;2.07;82.38
43681;BME280;29281;50.356;30.894;2023-02-16T06:10:14;101149.75;;;2.09;81.46
43681;BME280;29281;50.356;30.894;2023-02-16T06:11:19;101155.87;;;2.08;82.43
43681;BME280;29281;50.356;30.894;2023-02-16T06:12:37;101152.32;;;2.12;81.39
43681;BME280;29281;50.356;30.894;2023-02-16T06:13:46;101150.41;;;2.20;82.00
43681;BME280;29281;50.356;30.894;2023-02-16T06:14:54;101153.00;;;2.22;81.11